Time;durP1;ratioP1;P1;durP2;ratioP2;P2;SDS_P1;SDS_P2;PMS_P1;PMS_P2;Temp;Humidity;BMP_temperature;BMP_pressure;BME280_temperature;BME280_humidity;BME280_pressure;Samples;Min_cycle;Max_cycle;Signal;HPM_P1;HPM_P2
2021/01/13 00:02:23;;;;;;;10.07;2.40;;;1.30;94.60;;;;;;4314941;33;20281;-68
2021/01/13 00:04:49;;;;;;;14.47;2.50;;;1.30;94.60;;;;;;4317191;33;20205;-65
2021/01/13 00:07:16;;;;;;;9.30;2.03;;;1.30;94.60;;;;;;4317693;33;20634;-63
2021/01/13 00:09:43;;;;;;;9.83;2.83;;;1.30;94.60;;;;;;4303272;33;20165;-65
2021/01/13 00:12:10;;;;;;;9.53;2.10;;;1.40;94.90;;;;;;4310670;33;20631;-70
2021/01/13 00:14:37;;;;;;;17.97;2.70;;;1.50;95.20;;;;;;4316142;33;20225;-67
2021/01/13 00:17:04;;;;;;;12.57;2.37;;;1.60;95.60;;;;;;4317048;33;20162;-66
2021/01/13 00:19:31;;;;;;;15.30;3.13;;;1.60;95.10;;;;;;4313720;33;20515;-66
2021/01/13 00:22:03;;;;;;;17.50;3.30;;;1.70;95.00;;;;;;4315884;33;20229;-66
2021/01/13 00:24:31;;;;;;;17.50;2.67;;;1.60;95.10;;;;;;4317154;33;20328;-64
2021/01/13 00:26:58;;;;;;;17.07;2.83;;;1.70;95.30;;;;;;4316775;33;20241;-64
2021/01/13 00:29:25;;;;;;;9.00;2.67;;;1.80;95.50;;;;;;4315032;33;20173;-68
2021/01/13 00:32:01;;;;;;;13.87;2.90;;;2.00;95.80;;;;;;4313754;33;20220;-67
2021/01/13 00:34:34;;;;;;;31.73;4.00;;;2.10;95.90;;;;;;4316705;33;20550;-68
2021/01/13 00:37:02;;;;;;;18.47;3.50;;;2.20;95.90;;;;;;4316451;33;20229;-65
2021/01/13 00:39:29;;;;;;;10.40;2.30;;;2.40;95.70;;;;;;4302984;33;20149;-66
2021/01/13 00:41:59;;;;;;;9.33;1.87;;;2.50;95.50;;;;;;4316330;33;20237;-64
2021/01/13 00:44:28;;;;;;;13.37;2.13;;;2.60;95.60;;;;;;4316512;33;20583;-66
2021/01/13 00:46:58;;;;;;;10.40;2.33;;;2.70;95.70;;;;;;4316645;33;20201;-67
2021/01/13 00:49:24;;;;;;;15.20;2.07;;;2.60;95.80;;;;;;4301512;33;20643;-65
2021/01/13 00:51:51;;;;;;;9.63;1.70;;;2.70;95.70;;;;;;4308371;33;20210;-65
2021/01/13 00:54:31;;;;;;;14.77;2.07;;;2.80;95.80;;;;;;4309250;33;20217;-67
2021/01/13 00:57:03;;;;;;;8.07;1.83;;;2.70;95.70;;;;;;4304831;33;20185;-65
2021/01/13 00:59:31;;;;;;;9.83;1.60;;;2.70;95.30;;;;;;4310752;33;20217;-65
2021/01/13 01:02:03;;;;;;;12.57;1.60;;;2.50;95.00;;;;;;4312836;33;20530;-65
2021/01/13 01:04:36;;;;;;;17.70;1.73;;;2.40;94.80;;;;;;4315628;33;20256;-63
2021/01/13 01:07:09;;;;;;;8.87;1.63;;;2.30;94.70;;;;;;4316490;33;20355;-62
2021/01/13 01:09:35;;;;;;;7.57;1.20;;;2.20;94.70;;;;;;4311974;33;20150;-64
2021/01/13 01:12:01;;;;;;;8.13;1.40;;;2.20;94.70;;;;;;4312739;33;20291;-65
2021/01/13 01:14:28;;;;;;;7.97;1.40;;;2.10;94.60;;;;;;4315976;33;20169;-65
2021/01/13 01:16:54;;;;;;;7.63;2.23;;;2.00;94.50;;;;;;4317559;33;20225;-66
2021/01/13 01:19:21;;;;;;;9.77;1.50;;;2.00;94.60;;;;;;4319717;33;20371;-68
2021/01/13 01:21:49;;;;;;;7.00;1.37;;;2.00;94.70;;;;;;4310767;33;20180;-67
2021/01/13 01:24:18;;;;;;;8.43;1.33;;;1.90;94.50;;;;;;4315449;33;20563;-65
2021/01/13 01:26:51;;;;;;;4.53;1.70;;;1.90;94.50;;;;;;4310959;33;20229;-65
2021/01/13 01:29:17;;;;;;;9.53;1.43;;;1.80;94.40;;;;;;4314397;33;20268;-68
2021/01/13 01:31:51;;;;;;;7.07;1.30;;;1.80;94.30;;;;;;4310779;33;20214;-68
2021/01/13 01:34:20;;;;;;;9.93;1.70;;;1.70;94.30;;;;;;4314353;33;20169;-64
2021/01/13 01:36:48;;;;;;;8.37;1.60;;;1.60;94.40;;;;;;4316287;33;20162;-67
2021/01/13 01:39:14;;;;;;;14.17;1.67;;;1.70;94.50;;;;;;4316780;33;20496;-62
2021/01/13 01:41:44;;;;;;;12.60;1.77;;;1.60;94.40;;;;;;4316179;33;20157;-65
2021/01/13 01:44:10;;;;;;;13.83;1.70;;;1.50;94.40;;;;;;4310130;33;20253;-65
2021/01/13 01:46:48;;;;;;;11.60;2.27;;;1.50;94.40;;;;;;4315680;33;20193;-65
2021/01/13 01:49:15;;;;;;;8.87;1.43;;;1.50;94.40;;;;;;4315417;33;20165;-66
2021/01/13 01:52:02;;;;;;;11.90;2.77;;;1.50;94.40;;;;;;4316790;33;20217;-65
2021/01/13 01:54:34;;;;;;;11.47;1.93;;;1.40;94.40;;;;;;4315523;33;20276;-63
2021/01/13 01:57:03;;;;;;;11.40;2.10;;;1.40;94.50;;;;;;4316219;33;20583;-66
2021/01/13 01:59:48;;;;;;;12.70;2.43;;;1.40;94.70;;;;;;4315096;33;20212;-63
2021/01/13 02:02:21;;;;;;;10.13;2.37;;;1.40;94.90;;;;;;4314684;33;20157;-65
2021/01/13 02:04:59;;;;;;;11.80;2.07;;;1.50;95.00;;;;;;4315493;33;20237;-65
2021/01/13 02:07:31;;;;;;;14.23;2.50;;;1.40;94.90;;;;;;4315289;33;20158;-65
2021/01/13 02:10:02;;;;;;;8.80;2.20;;;1.40;94.90;;;;;;4315002;33;20188;-64
2021/01/13 02:12:32;;;;;;;17.37;2.40;;;1.40;95.00;;;;;;4315489;33;20304;-64
2021/01/13 02:14:59;;;;;;;14.83;2.17;;;1.40;95.30;;;;;;4315660;33;20214;-64
2021/01/13 02:17:33;;;;;;;6.97;1.57;;;1.40;95.10;;;;;;4314799;33;20214;-64
2021/01/13 02:20:14;;;;;;;10.90;2.20;;;1.40;95.10;;;;;;4314981;33;20174;-66
2021/01/13 02:22:56;;;;;;;20.87;3.27;;;1.40;95.10;;;;;;4312584;33;20166;-65
2021/01/13 02:26:05;;;;;;;8.80;2.47;;;1.50;95.20;;;;;;4317070;33;20170;-63
2021/01/13 02:28:46;;;;;;;15.47;3.73;;;1.50;95.10;;;;;;4315178;33;20208;-66
2021/01/13 02:31:34;;;;;;;6.57;1.47;;;1.60;95.40;;;;;;4316345;33;20235;-67
2021/01/13 02:34:20;;;;;;;10.50;2.07;;;1.60;95.50;;;;;;4256085;33;20201;-68
2021/01/13 02:37:31;;;;;;;14.80;1.50;;;1.60;95.50;;;;;;4255074;33;20260;-65
2021/01/13 02:39:57;;;;;;;10.83;1.80;;;1.60;95.50;;;;;;4254659;33;20299;-64
2021/01/13 02:42:35;;;;;;;8.00;1.80;;;1.70;95.50;;;;;;4255749;33;20187;-64
2021/01/13 02:45:18;;;;;;;10.27;1.80;;;1.70;95.70;;;;;;4254503;33;20297;-65
2021/01/13 02:48:10;;;;;;;16.60;2.33;;;1.80;95.80;;;;;;4255941;33;20226;-65
2021/01/13 02:50:40;;;;;;;10.43;1.63;;;1.90;96.00;;;;;;4254079;33;20167;-65
2021/01/13 02:53:30;;;;;;;5.60;1.10;;;2.10;96.50;;;;;;4254905;33;20194;-68
2021/01/13 02:56:06;;;;;;;12.33;2.47;;;2.20;96.80;;;;;;4255019;33;20397;-66
2021/01/13 02:58:35;;;;;;;15.13;1.80;;;2.40;96.90;;;;;;4256510;33;20546;-69
2021/01/13 03:01:08;;;;;;;13.50;2.23;;;2.50;96.90;;;;;;4255030;33;20179;-66
2021/01/13 03:03:36;;;;;;;9.07;1.63;;;2.60;96.90;;;;;;4255508;33;20197;-66
2021/01/13 03:06:07;;;;;;;16.60;2.87;;;2.60;96.80;;;;;;4255298;33;20267;-65
2021/01/13 03:09:00;;;;;;;11.30;1.67;;;2.60;96.50;;;;;;4255168;33;20343;-64
2021/01/13 03:11:34;;;;;;;12.37;1.70;;;2.60;96.40;;;;;;4248860;33;20211;-65
2021/01/13 03:14:14;;;;;;;11.57;2.27;;;2.40;96.00;;;;;;4268843;33;20193;-66
2021/01/13 03:16:45;;;;;;;10.07;2.33;;;2.40;95.80;;;;;;4269390;33;20302;-66
2021/01/13 03:19:26;;;;;;;8.43;1.50;;;2.30;95.70;;;;;;4269790;33;20189;-69
2021/01/13 03:21:59;;;;;;;6.00;1.23;;;2.30;95.50;;;;;;4269591;33;20520;-65
2021/01/13 03:24:39;;;;;;;10.73;1.97;;;2.30;95.60;;;;;;4268964;33;20170;-65
2021/01/13 03:27:11;;;;;;;11.20;1.67;;;2.40;96.10;;;;;;4263803;33;20193;-64
2021/01/13 03:29:48;;;;;;;11.63;2.37;;;2.40;96.00;;;;;;4268962;33;20197;-66
2021/01/13 03:32:19;;;;;;;9.00;2.00;;;2.40;95.90;;;;;;4268745;33;20175;-67
2021/01/13 03:34:58;;;;;;;8.23;1.63;;;2.40;96.20;;;;;;4269047;33;20217;-65
2021/01/13 03:37:25;;;;;;;10.57;2.30;;;2.50;96.60;;;;;;4269517;33;20159;-67
2021/01/13 03:39:53;;;;;;;7.57;1.93;;;2.60;96.70;;;;;;4269199;33;20158;-63
2021/01/13 03:42:22;;;;;;;15.03;2.50;;;2.70;96.80;;;;;;4266161;33;20213;-65
2021/01/13 03:44:50;;;;;;;11.17;2.00;;;2.70;96.70;;;;;;4261344;33;20266;-63
2021/01/13 03:47:57;;;;;;;16.43;2.37;;;2.80;96.60;;;;;;4271504;33;20181;-64
2021/01/13 03:50:25;;;;;;;12.77;2.57;;;2.80;96.50;;;;;;4323305;33;20209;-65
2021/01/13 03:53:04;;;;;;;13.03;1.97;;;2.80;96.50;;;;;;4313568;33;20235;-65
2021/01/13 03:55:32;;;;;;;17.43;1.77;;;2.90;96.60;;;;;;4314568;33;20168;-68
2021/01/13 03:58:25;;;;;;;12.27;2.10;;;2.90;96.60;;;;;;4314181;33;20240;-66
2021/01/13 04:01:01;;;;;;;9.43;2.80;;;3.00;96.70;;;;;;4313164;33;20162;-63
2021/01/13 04:03:31;;;;;;;12.27;2.30;;;3.10;96.70;;;;;;4312845;33;20165;-64
2021/01/13 04:06:08;;;;;;;14.97;2.03;;;3.20;96.60;;;;;;4315066;33;20200;-65
2021/01/13 04:08:39;;;;;;;8.87;1.87;;;3.10;96.40;;;;;;4306349;33;20252;-62
2021/01/13 04:11:08;;;;;;;5.97;1.53;;;3.10;96.00;;;;;;4307958;33;20691;-65
2021/01/13 04:13:40;;;;;;;8.53;2.00;;;3.00;95.80;;;;;;4314216;33;20154;-64
2021/01/13 04:16:08;;;;;;;6.77;1.83;;;2.90;95.80;;;;;;4311635;33;20210;-63
2021/01/13 04:18:37;;;;;;;8.93;1.87;;;2.90;95.70;;;;;;4315047;33;20202;-63
2021/01/13 04:21:04;;;;;;;10.77;2.10;;;2.90;95.60;;;;;;4314747;33;20226;-68
2021/01/13 04:23:31;;;;;;;12.20;2.10;;;2.90;95.50;;;;;;4313611;33;20603;-66
2021/01/13 04:25:59;;;;;;;12.97;2.60;;;2.80;95.40;;;;;;4313270;33;20218;-64
2021/01/13 04:28:26;;;;;;;12.43;2.43;;;2.80;95.60;;;;;;4314444;33;20214;-64
2021/01/13 04:30:55;;;;;;;17.40;2.73;;;2.90;95.80;;;;;;4313028;33;20158;-67
2021/01/13 04:33:22;;;;;;;15.97;2.73;;;2.90;95.60;;;;;;4313707;33;20224;-62
2021/01/13 04:35:51;;;;;;;11.20;2.23;;;2.90;95.50;;;;;;4313870;33;20227;-64
2021/01/13 04:38:21;;;;;;;20.23;2.53;;;2.90;95.40;;;;;;4314202;33;20173;-67
2021/01/13 04:40:50;;;;;;;11.83;2.27;;;2.80;95.30;;;;;;4314324;33;20181;-65
2021/01/13 04:43:23;;;;;;;18.67;2.83;;;2.80;95.30;;;;;;4315209;33;20654;-67
2021/01/13 04:45:50;;;;;;;11.60;2.10;;;2.90;95.10;;;;;;4314660;33;20165;-66
2021/01/13 04:48:21;;;;;;;17.67;2.90;;;2.80;95.00;;;;;;4316811;33;20169;-66
2021/01/13 04:50:49;;;;;;;19.10;3.10;;;2.80;95.30;;;;;;4316588;33;20166;-66
2021/01/13 04:53:17;;;;;;;19.30;2.83;;;2.70;94.90;;;;;;4317205;33;20188;-66
2021/01/13 04:55:49;;;;;;;13.20;3.30;;;2.70;94.90;;;;;;4330465;33;20302;-67
2021/01/13 04:59:06;;;;;;;13.93;2.30;;;2.70;94.90;;;;;;4321006;33;20153;-65
2021/01/13 05:01:48;;;;;;;13.20;2.67;;;2.70;94.90;;;;;;4304506;33;20193;-67
2021/01/13 05:04:51;;;;;;;13.40;2.80;;;2.70;95.00;;;;;;4316999;33;20196;-66
2021/01/13 05:07:30;;;;;;;18.00;3.47;;;2.70;95.10;;;;;;4294186;33;20204;-66
2021/01/13 05:10:01;;;;;;;18.23;3.87;;;2.70;95.20;;;;;;4317087;33;20153;-63
2021/01/13 05:12:48;;;;;;;22.10;2.20;;;2.70;95.10;;;;;;4316814;33;20493;-65
2021/01/13 05:15:17;;;;;;;17.80;2.80;;;2.70;94.90;;;;;;4314740;33;20213;-67
2021/01/13 05:18:02;;;;;;;9.70;1.90;;;2.70;94.80;;;;;;4308895;33;20232;-66
2021/01/13 05:20:30;;;;;;;18.33;3.47;;;2.70;94.60;;;;;;4316228;33;20287;-63
2021/01/13 05:22:59;;;;;;;17.23;2.37;;;2.60;94.60;;;;;;4320470;33;20210;-65
2021/01/13 05:25:46;;;;;;;12.37;2.47;;;2.50;94.70;;;;;;4315959;33;20166;-67
2021/01/13 05:28:18;;;;;;;25.27;3.20;;;2.50;94.60;;;;;;4315773;33;20169;-66
2021/01/13 05:30:48;;;;;;;10.83;2.63;;;2.50;94.60;;;;;;4315716;33;20208;-66
2021/01/13 05:33:16;;;;;;;13.20;2.30;;;2.40;94.70;;;;;;4316378;33;20490;-65
2021/01/13 05:35:49;;;;;;;10.70;2.57;;;2.40;94.70;;;;;;4315678;33;20191;-63
2021/01/13 05:38:41;;;;;;;11.33;3.50;;;2.50;94.70;;;;;;4306374;33;20176;-66
2021/01/13 05:41:15;;;;;;;13.47;2.27;;;2.40;94.70;;;;;;4289172;33;20549;-63
2021/01/13 05:43:46;;;;;;;21.00;2.77;;;2.40;94.90;;;;;;4314087;33;20595;-64
2021/01/13 05:46:14;;;;;;;14.47;3.03;;;2.50;95.10;;;;;;4315093;33;20344;-64
2021/01/13 05:48:41;;;;;;;16.30;2.77;;;2.60;95.10;;;;;;4310608;33;20158;-66
2021/01/13 05:51:10;;;;;;;12.57;2.87;;;2.60;94.90;;;;;;4312278;33;20214;-64
2021/01/13 05:53:50;;;;;;;18.27;2.93;;;2.60;94.70;;;;;;4316591;33;20319;-65
2021/01/13 05:56:24;;;;;;;13.20;2.63;;;2.60;94.60;;;;;;4315254;33;20161;-62
2021/01/13 05:59:01;;;;;;;15.60;2.77;;;2.50;94.70;;;;;;4316161;33;20208;-65
2021/01/13 06:01:36;;;;;;;20.87;2.87;;;2.60;94.70;;;;;;4316012;33;20213;-65
2021/01/13 06:04:07;;;;;;;10.60;2.87;;;2.50;94.80;;;;;;4311006;33;20208;-66
2021/01/13 06:06:36;;;;;;;18.87;2.77;;;2.50;94.80;;;;;;4315350;33;20173;-65
2021/01/13 06:09:12;;;;;;;16.80;2.63;;;2.60;94.80;;;;;;4315920;33;20184;-66
2021/01/13 06:11:43;;;;;;;11.17;2.73;;;2.60;94.90;;;;;;4315286;33;20212;-61
2021/01/13 06:14:22;;;;;;;11.70;2.63;;;2.60;94.50;;;;;;4314375;33;20210;-65
2021/01/13 06:16:52;;;;;;;18.47;2.77;;;2.60;94.60;;;;;;4315007;33;20192;-65
2021/01/13 06:19:19;;;;;;;12.90;2.40;;;2.60;94.50;;;;;;4315340;33;20244;-66
2021/01/13 06:21:46;;;;;;;17.47;2.57;;;2.60;94.30;;;;;;4315991;33;20253;-65
2021/01/13 06:24:13;;;;;;;11.10;1.70;;;2.70;94.10;;;;;;4314627;33;20179;-66
2021/01/13 06:26:52;;;;;;;13.87;2.13;;;2.60;94.10;;;;;;4316377;33;20515;-63
2021/01/13 06:29:42;;;;;;;11.30;2.20;;;2.60;94.00;;;;;;4306547;33;20193;-64
2021/01/13 06:32:27;;;;;;;12.53;2.80;;;2.60;93.90;;;;;;4304494;33;20633;-63
2021/01/13 06:34:58;;;;;;;9.10;3.10;;;2.60;93.70;;;;;;4311625;33;20192;-66
2021/01/13 06:37:39;;;;;;;13.03;1.97;;;2.60;93.30;;;;;;4316308;33;20164;-67
2021/01/13 06:40:15;;;;;;;12.10;2.47;;;2.80;92.70;;;;;;4311424;33;20162;-68
2021/01/13 06:42:42;;;;;;;12.73;2.43;;;2.80;92.60;;;;;;4313839;33;20237;-63
2021/01/13 06:45:11;;;;;;;14.00;1.80;;;2.70;92.50;;;;;;4311363;33;20258;-65
2021/01/13 06:47:54;;;;;;;10.50;1.90;;;2.70;92.10;;;;;;4308094;33;20228;-63
2021/01/13 06:50:40;;;;;;;14.03;3.63;;;2.70;91.70;;;;;;4308987;33;20166;-63
2021/01/13 06:53:07;;;;;;;12.17;1.90;;;2.60;91.80;;;;;;4312025;33;20176;-65
2021/01/13 06:55:35;;;;;;;17.73;2.33;;;2.70;92.00;;;;;;4313377;33;20249;-64
2021/01/13 06:58:13;;;;;;;12.83;2.70;;;2.60;92.20;;;;;;4313977;33;20170;-67
2021/01/13 07:00:40;;;;;;;10.03;2.53;;;2.60;92.30;;;;;;4314744;33;20575;-64
2021/01/13 07:03:25;;;;;;;20.83;2.57;;;2.50;92.40;;;;;;4313227;33;20158;-64
2021/01/13 07:05:56;;;;;;;18.97;2.70;;;2.40;92.60;;;;;;4313031;33;20162;-65
2021/01/13 07:08:26;;;;;;;15.27;2.40;;;2.40;92.60;;;;;;4310511;33;20699;-64
2021/01/13 07:11:09;;;;;;;6.83;2.23;;;2.40;92.70;;;;;;4312438;33;20234;-64
2021/01/13 07:13:41;;;;;;;14.53;2.53;;;2.40;92.70;;;;;;4312318;33;20180;-65
2021/01/13 07:16:11;;;;;;;10.90;3.07;;;2.40;92.90;;;;;;4311079;33;20170;-64
2021/01/13 07:18:38;;;;;;;13.80;2.20;;;2.30;92.90;;;;;;4314293;33;20493;-66
2021/01/13 07:21:08;;;;;;;15.23;2.83;;;2.30;93.00;;;;;;4310247;33;20283;-69
2021/01/13 07:23:44;;;;;;;15.93;2.93;;;2.40;92.90;;;;;;4310310;33;20158;-65
2021/01/13 07:26:13;;;;;;;7.73;2.23;;;2.40;92.80;;;;;;4312151;33;20276;-69
2021/01/13 07:28:49;;;;;;;12.90;2.30;;;2.30;92.70;;;;;;4312210;33;20169;-66
2021/01/13 07:31:28;;;;;;;12.60;2.20;;;2.30;92.70;;;;;;4313101;33;20224;-66
2021/01/13 07:34:09;;;;;;;10.87;2.93;;;2.30;92.90;;;;;;4309626;33;20502;-64
2021/01/13 07:36:51;;;;;;;11.43;2.67;;;2.30;92.90;;;;;;4315143;33;20528;-66
2021/01/13 07:39:29;;;;;;;15.63;2.57;;;2.20;93.00;;;;;;4309436;33;20690;-65
2021/01/13 07:42:24;;;;;;;11.87;2.30;;;2.20;93.00;;;;;;4310605;33;20593;-66
2021/01/13 07:48:24;;;;;;;12.53;2.73;;;2.30;93.00;;;;;;4275608;33;20323;-66
2021/01/13 07:51:09;;;;;;;11.77;2.57;;;2.30;93.00;;;;;;4194087;34;20220;-64
2021/01/13 07:53:37;;;;;;;10.70;2.30;;;2.30;93.20;;;;;;4195174;34;20188;-64
2021/01/13 07:56:05;;;;;;;11.60;2.27;;;2.30;93.00;;;;;;4196845;34;20181;-66
2021/01/13 07:58:38;;;;;;;10.40;2.23;;;2.30;93.00;;;;;;4196807;34;20192;-64
2021/01/13 08:05:52;;;;;;;8.90;2.50;;;2.40;93.00;;;;;;4169467;34;20257;-66
2021/01/13 08:08:28;;;;;;;9.10;2.17;;;2.50;92.90;;;;;;4185361;34;20244;-68
2021/01/13 08:14:31;;;;;;;8.97;2.00;;;2.50;92.70;;;;;;4179098;34;20650;-65
2021/01/13 08:17:19;;;;;;;9.90;1.93;;;2.60;92.70;;;;;;4183972;34;20263;-64
2021/01/13 08:23:12;;;;;;;11.33;2.37;;;3.00;92.00;;;;;;4187457;34;20264;-65
2021/01/13 08:26:00;;;;;;;6.97;2.00;;;3.00;91.60;;;;;;4192516;34;20165;-64
2021/01/13 08:28:39;;;;;;;16.13;2.13;;;2.90;91.50;;;;;;4257433;33;20187;-65
2021/01/13 08:31:18;;;;;;;13.70;2.90;;;2.90;91.60;;;;;;4283882;33;20547;-66
2021/01/13 08:33:55;;;;;;;14.77;2.80;;;2.80;91.60;;;;;;4281341;33;20252;-65
2021/01/13 08:39:18;;;;;;;12.47;3.00;;;3.00;91.80;;;;;;4305787;33;20285;-66
2021/01/13 08:42:14;;;;;;;11.50;1.97;;;3.10;91.60;;;;;;4317794;33;20241;-65
2021/01/13 08:45:06;;;;;;;11.30;2.20;;;3.10;91.40;;;;;;4311962;33;20452;-66
2021/01/13 08:48:06;;;;;;;11.13;2.10;;;3.10;91.30;;;;;;4312672;33;20188;-66
2021/01/13 08:50:49;;;;;;;24.20;2.87;;;3.10;91.60;;;;;;4316215;33;20169;-66
2021/01/13 08:53:42;;;;;;;12.43;2.07;;;3.20;91.50;;;;;;4315556;33;20149;-65
2021/01/13 08:56:38;;;;;;;11.03;2.50;;;3.50;90.70;;;;;;4318312;33;20218;-65
2021/01/13 08:59:08;;;;;;;10.47;2.90;;;3.60;90.70;;;;;;4318909;33;20164;-64
2021/01/13 09:01:51;;;;;;;12.40;2.27;;;3.70;90.20;;;;;;4316054;33;20181;-68
2021/01/13 09:04:26;;;;;;;14.07;2.27;;;3.80;90.20;;;;;;4319042;33;20522;-65
2021/01/13 09:07:02;;;;;;;10.13;2.07;;;3.80;89.20;;;;;;4312911;33;20172;-66
2021/01/13 09:10:17;;;;;;;12.43;2.53;;;3.80;89.20;;;;;;4309036;33;20203;-65
2021/01/13 09:16:23;;;;;;;13.47;3.13;;;3.80;89.90;;;;;;4313298;33;20154;-65
2021/01/13 09:19:20;;;;;;;10.37;2.40;;;3.90;89.50;;;;;;4263332;33;20210;-65
2021/01/13 09:22:21;;;;;;;14.47;2.70;;;4.00;89.10;;;;;;4265534;33;20238;-66
2021/01/13 09:28:27;;;;;;;15.77;2.97;;;4.00;88.40;;;;;;4263293;33;20584;-65
2021/01/13 09:31:18;;;;;;;13.40;2.63;;;4.00;88.90;;;;;;4261135;33;20164;-66
2021/01/13 09:33:46;;;;;;;13.90;2.53;;;4.00;87.50;;;;;;4263244;33;20166;-65
2021/01/13 09:36:27;;;;;;;6.93;2.47;;;3.90;88.50;;;;;;4263683;33;20591;-65
2021/01/13 09:39:23;;;;;;;15.27;2.43;;;3.90;88.70;;;;;;4259569;33;20658;-66
2021/01/13 09:45:46;;;;;;;11.20;2.90;;;3.80;89.30;;;;;;4258206;33;20222;-67
2021/01/13 09:48:45;;;;;;;15.83;3.30;;;3.70;89.90;;;;;;4268218;33;20567;-65
2021/01/13 09:51:32;;;;;;;15.47;2.60;;;3.70;90.40;;;;;;4267946;33;20145;-65
2021/01/13 09:54:02;;;;;;;20.37;3.33;;;3.80;90.20;;;;;;4262739;33;20175;-66
2021/01/13 10:00:03;;;;;;;9.10;3.07;;;3.90;89.50;;;;;;4268102;33;20262;-65
2021/01/13 10:02:57;;;;;;;25.97;3.07;;;3.90;89.70;;;;;;4267146;33;20230;-66
2021/01/13 10:05:33;;;;;;;12.13;3.07;;;3.90;89.80;;;;;;4266062;33;20162;-65
2021/01/13 10:08:28;;;;;;;12.50;2.67;;;4.00;89.60;;;;;;4268168;33;20268;-66
2021/01/13 10:11:14;;;;;;;;;;;;;;;;;;;;;
2021/01/13 10:13:59;;;;;;;10.30;2.77;;;4.20;88.30;;;;;;4267568;33;20174;-66
2021/01/13 10:16:45;;;;;;;13.87;2.60;;;4.10;88.90;;;;;;4266712;33;20194;-64
2021/01/13 10:19:35;;;;;;;12.47;3.17;;;4.10;89.10;;;;;;4267795;33;20159;-67
2021/01/13 10:22:31;;;;;;;14.53;3.10;;;4.10;89.10;;;;;;4268101;33;20166;-64
2021/01/13 10:25:52;;;;;;;10.17;3.10;;;4.20;88.70;;;;;;4267846;33;20217;-66
2021/01/13 10:28:41;;;;;;;12.93;2.93;;;4.20;88.20;;;;;;4206157;34;20214;-67
2021/01/13 11:09:22;;;;;;;11.93;2.90;;;5.10;83.40;;;;;;4256922;32;5422397;-67
2021/01/13 11:11:58;;;;;;;13.40;2.00;;;5.30;81.90;;;;;;4421352;32;20179;-65
2021/01/13 11:14:37;;;;;;;8.47;2.57;;;5.30;80.50;;;;;;4413658;32;20230;-68
2021/01/13 11:17:12;;;;;;;8.83;2.53;;;5.20;80.40;;;;;;4420347;32;20682;-65
2021/01/13 11:19:44;;;;;;;12.00;2.33;;;5.20;80.60;;;;;;4424230;32;20218;-66
2021/01/13 11:22:11;;;;;;;12.07;2.17;;;5.30;78.00;;;;;;4422947;32;20223;-65
2021/01/13 11:24:44;;;;;;;13.27;2.73;;;5.50;79.50;;;;;;4420951;32;20215;-65
2021/01/13 11:27:14;;;;;;;13.37;2.10;;;5.70;77.60;;;;;;4422355;32;20565;-65
2021/01/13 11:29:54;;;;;;;7.97;2.07;;;5.80;76.40;;;;;;4421058;32;20190;-66
2021/01/13 11:32:29;;;;;;;9.03;2.57;;;5.80;77.10;;;;;;4423741;32;20155;-66
2021/01/13 11:35:07;;;;;;;10.80;2.93;;;5.80;76.60;;;;;;4421419;32;20206;-65
2021/01/13 11:37:59;;;;;;;7.20;2.10;;;5.70;77.20;;;;;;4415727;32;20222;-64
2021/01/13 11:40:38;;;;;;;11.27;2.30;;;5.60;76.60;;;;;;4417991;32;20322;-67
2021/01/13 11:43:52;;;;;;;13.63;2.60;;;5.80;77.00;;;;;;4422079;32;20243;-65
2021/01/13 11:46:27;;;;;;;17.07;2.27;;;6.00;76.10;;;;;;4390840;32;20180;-66
2021/01/13 11:49:27;;;;;;;11.67;2.67;;;6.00;75.90;;;;;;4392660;32;20624;-65
2021/01/13 11:52:08;;;;;;;9.37;2.20;;;6.20;74.90;;;;;;4392096;32;20246;-64
2021/01/13 11:54:36;;;;;;;14.43;2.63;;;6.30;75.20;;;;;;4389538;32;20242;-64
2021/01/13 11:57:27;;;;;;;11.10;3.10;;;6.30;74.30;;;;;;4389334;32;20168;-65
2021/01/13 11:59:56;;;;;;;12.70;2.50;;;6.30;73.80;;;;;;4392541;32;20267;-66
2021/01/13 12:02:27;;;;;;;10.57;2.43;;;6.40;74.10;;;;;;4393732;32;20243;-66
2021/01/13 12:05:00;;;;;;;6.80;2.40;;;6.40;73.60;;;;;;4393430;32;20552;-65
2021/01/13 12:07:27;;;;;;;8.83;3.10;;;6.30;73.20;;;;;;4392157;32;20259;-68
2021/01/13 12:10:28;;;;;;;10.17;3.53;;;6.10;74.30;;;;;;4386032;32;20274;-66
2021/01/13 12:15:57;;;;;;;11.47;3.00;;;5.90;74.80;;;;;;4221611;32;6805660;-67
2021/01/13 12:18:26;;;;;;;11.67;2.50;;;5.60;75.90;;;;;;4419386;32;20166;-64
2021/01/13 12:21:16;;;;;;;7.97;2.00;;;5.50;75.40;;;;;;4419992;32;20171;-65
2021/01/13 12:23:46;;;;;;;7.07;1.93;;;5.40;75.60;;;;;;4419569;32;20192;-66
2021/01/13 12:26:19;;;;;;;8.63;2.17;;;5.20;77.00;;;;;;4416446;32;20160;-66
2021/01/13 12:28:50;;;;;;;11.27;1.70;;;5.10;76.30;;;;;;4420459;32;20194;-66
2021/01/13 12:31:19;;;;;;;11.77;2.40;;;5.10;77.00;;;;;;4420402;32;20159;-66
2021/01/13 12:33:54;;;;;;;6.93;1.87;;;5.20;76.70;;;;;;4418827;32;20568;-65
2021/01/13 12:36:25;;;;;;;15.00;2.70;;;5.10;77.70;;;;;;4417599;32;20245;-66
2021/01/13 12:38:53;;;;;;;14.83;2.50;;;5.20;76.50;;;;;;4422086;32;20497;-67
2021/01/13 12:41:25;;;;;;;17.37;2.53;;;5.20;77.30;;;;;;4419352;32;20181;-65
2021/01/13 12:43:52;;;;;;;15.33;1.90;;;5.20;76.10;;;;;;4420934;32;20337;-66
2021/01/13 12:46:33;;;;;;;10.77;2.63;;;5.20;76.10;;;;;;4422170;32;20207;-66
2021/01/13 12:49:03;;;;;;;11.73;2.83;;;5.10;77.30;;;;;;4420775;32;20315;-67
2021/01/13 12:51:38;;;;;;;10.10;2.20;;;5.10;76.00;;;;;;4422372;32;20557;-66
2021/01/13 12:54:05;;;;;;;9.50;2.30;;;5.10;76.90;;;;;;4426730;32;20166;-66
2021/01/13 12:56:35;;;;;;;8.57;2.13;;;5.10;77.20;;;;;;4421472;32;20565;-65
2021/01/13 12:59:02;;;;;;;11.00;1.93;;;5.10;75.90;;;;;;4419898;32;20159;-65
2021/01/13 13:01:39;;;;;;;7.47;2.47;;;5.20;76.50;;;;;;4422429;32;20292;-65
2021/01/13 13:04:12;;;;;;;9.87;1.73;;;5.20;75.10;;;;;;4420782;32;20211;-66
2021/01/13 13:06:43;;;;;;;10.93;2.13;;;5.30;74.40;;;;;;4419165;32;20679;-66
2021/01/13 13:09:13;;;;;;;9.10;2.30;;;5.20;76.40;;;;;;4418743;32;20249;-66
2021/01/13 13:11:41;;;;;;;7.80;1.83;;;5.20;76.90;;;;;;4418032;32;20151;-65
2021/01/13 13:14:10;;;;;;;6.03;2.37;;;5.30;75.80;;;;;;4423084;32;20257;-65
2021/01/13 13:16:43;;;;;;;9.80;2.30;;;5.40;76.90;;;;;;4437436;32;20193;-67
2021/01/13 13:19:13;;;;;;;9.53;2.17;;;5.50;76.60;;;;;;4437238;32;20189;-66
2021/01/13 13:21:42;;;;;;;10.93;2.33;;;5.60;74.30;;;;;;4437927;32;20201;-67
2021/01/13 13:24:11;;;;;;;7.60;2.47;;;5.60;75.30;;;;;;4436709;32;20688;-65
2021/01/13 13:26:40;;;;;;;9.17;1.83;;;5.70;74.50;;;;;;4429418;32;20237;-65
2021/01/13 13:29:11;;;;;;;9.93;2.97;;;5.70;74.40;;;;;;4427260;32;20174;-66
2021/01/13 13:31:40;;;;;;;8.60;2.63;;;5.70;74.80;;;;;;4428219;32;20189;-65
2021/01/13 13:34:07;;;;;;;14.23;2.90;;;5.60;75.80;;;;;;4425790;32;20155;-65
2021/01/13 13:36:33;;;;;;;15.53;3.00;;;5.60;76.00;;;;;;4427124;32;20186;-66
2021/01/13 13:38:59;;;;;;;10.67;2.60;;;5.60;74.70;;;;;;4426403;32;20226;-65
2021/01/13 13:41:26;;;;;;;11.77;3.10;;;5.60;75.70;;;;;;4424948;32;20290;-66
2021/01/13 13:43:53;;;;;;;10.00;2.17;;;5.50;76.60;;;;;;4427232;32;20170;-66
2021/01/13 13:46:19;;;;;;;8.47;2.47;;;5.30;77.70;;;;;;4427000;32;20214;-65
2021/01/13 13:48:59;;;;;;;10.83;2.63;;;5.30;77.50;;;;;;4426369;32;20163;-65
2021/01/13 13:51:29;;;;;;;8.80;3.03;;;5.30;78.00;;;;;;4426340;32;20180;-66
2021/01/13 13:54:00;;;;;;;12.57;3.13;;;5.30;77.70;;;;;;4424314;32;20175;-66
2021/01/13 13:56:31;;;;;;;11.20;2.63;;;5.30;77.50;;;;;;4423529;32;20240;-66
2021/01/13 13:58:57;;;;;;;12.00;2.83;;;5.30;78.30;;;;;;4423984;32;20182;-66
2021/01/13 14:01:32;;;;;;;9.67;2.47;;;5.20;78.50;;;;;;4426403;32;20199;-66
2021/01/13 14:04:03;;;;;;;10.80;2.47;;;5.20;78.50;;;;;;4425202;32;20539;-67
2021/01/13 14:06:29;;;;;;;11.63;2.70;;;5.10;77.80;;;;;;4426198;32;20180;-66
2021/01/13 14:08:56;;;;;;;11.23;3.20;;;5.10;78.40;;;;;;4425733;32;20239;-65
2021/01/13 14:11:25;;;;;;;11.13;2.67;;;5.00;78.60;;;;;;4427626;32;20236;-66
2021/01/13 14:13:52;;;;;;;14.93;3.47;;;4.90;79.60;;;;;;4425790;32;20177;-65
2021/01/13 14:16:21;;;;;;;9.97;2.97;;;4.90;79.20;;;;;;4426861;32;20789;-66
2021/01/13 14:18:58;;;;;;;9.73;2.57;;;4.80;79.70;;;;;;4424063;32;20217;-64
2021/01/13 14:21:26;;;;;;;9.17;2.80;;;4.80;80.10;;;;;;4425822;32;20158;-63
2021/01/13 14:23:56;;;;;;;9.43;2.67;;;4.80;79.80;;;;;;4415963;32;20187;-66
2021/01/13 14:26:22;;;;;;;10.70;3.30;;;4.80;80.50;;;;;;4425062;32;20219;-65
2021/01/13 14:28:56;;;;;;;10.53;2.97;;;4.70;80.80;;;;;;4426859;32;20190;-64
2021/01/13 14:31:22;;;;;;;6.50;2.40;;;4.70;81.00;;;;;;4425477;32;20167;-64
2021/01/13 14:33:49;;;;;;;13.40;3.63;;;4.70;81.40;;;;;;4425490;32;20284;-64
2021/01/13 14:36:21;;;;;;;14.37;3.10;;;4.70;80.60;;;;;;4426267;32;20199;-66
2021/01/13 14:38:48;;;;;;;8.90;2.77;;;4.70;81.30;;;;;;4426814;32;20451;-66
2021/01/13 14:41:15;;;;;;;14.93;3.10;;;4.70;80.90;;;;;;4425032;32;20163;-65
2021/01/13 14:43:41;;;;;;;13.03;3.13;;;4.70;81.30;;;;;;4418508;32;20283;-65
2021/01/13 14:46:09;;;;;;;12.53;2.77;;;4.80;80.70;;;;;;4423838;32;20159;-67